Time;durP1;ratioP1;P1;durP2;ratioP2;P2;SDS_P1;SDS_P2;PMS_P1;PMS_P2;Temp;Humidity;BMP_temperature;BMP_pressure;BME280_temperature;BME280_humidity;BME280_pressure;Samples;Min_cycle;Max_cycle;Signal;HPM_P1;HPM_P2
2022/05/29 00:01:53;;;;;;;25.25;7.53;;;;;;;8.53;100.00;154671.03;4997161;28;20044;-77
2022/05/29 00:04:19;;;;;;;28.30;6.93;;;;;;;8.48;100.00;154658.28;5004604;28;20030;-79
2022/05/29 00:06:49;;;;;;;24.63;6.32;;;;;;;8.45;100.00;154651.81;5041262;28;20087;-78
2022/05/29 00:09:19;;;;;;;32.28;7.65;;;;;;;8.48;100.00;154658.28;5030361;28;20738;-79
2022/05/29 00:11:45;;;;;;;27.85;7.38;;;;;;;8.48;100.00;154659.53;5023544;28;20086;-79
2022/05/29 00:14:11;;;;;;;28.15;7.32;;;;;;;8.43;100.00;154645.44;5021988;28;20055;-79
2022/05/29 00:16:37;;;;;;;20.55;7.07;;;;;;;8.26;100.00;154604.38;5010790;28;20622;-79
2022/05/29 00:19:02;;;;;;;25.25;7.03;;;;;;;8.32;100.00;154618.47;5026859;28;20040;-79
2022/05/29 00:21:32;;;;;;;22.85;7.25;;;;;;;8.31;100.00;154617.22;5004758;28;20479;-79
2022/05/29 00:23:58;;;;;;;30.17;8.18;;;;;;;8.31;100.00;154615.94;4993469;28;20103;-79
2022/05/29 00:26:23;;;;;;;28.17;6.63;;;;;;;8.30;100.00;154613.34;5011677;28;20546;-78
2022/05/29 00:28:49;;;;;;;24.05;7.15;;;;;;;8.30;100.00;154613.34;5019553;28;20037;-78
2022/05/29 00:31:14;;;;;;;29.67;7.75;;;;;;;8.32;100.00;154619.75;5028052;28;20056;-79
2022/05/29 00:33:41;;;;;;;20.58;6.78;;;;;;;8.31;100.00;154617.22;4997764;28;20029;-78
2022/05/29 00:36:13;;;;;;;21.58;7.15;;;;;;;8.35;100.00;154627.44;5019638;28;20033;-78
2022/05/29 00:38:41;;;;;;;25.92;7.57;;;;;;;8.36;100.00;154628.72;5006434;28;20037;-78
2022/05/29 00:41:22;;;;;;;30.42;6.95;;;;;;;8.34;100.00;154624.91;5013644;28;20037;-78
2022/05/29 00:44:08;;;;;;;24.65;6.70;;;;;;;8.29;100.00;154612.09;4993972;28;20757;-78
2022/05/29 00:46:34;;;;;;;25.05;6.28;;;;;;;8.26;100.00;154604.38;5009224;28;20041;-78
2022/05/29 00:49:08;;;;;;;26.13;6.70;;;;;;;8.26;100.00;154603.13;5018799;28;20037;-77
2022/05/29 00:52:14;;;;;;;21.30;6.28;;;;;;;8.25;100.00;154601.84;5016084;28;20041;-77
2022/05/29 00:55:02;;;;;;;24.80;6.15;;;;;;;8.22;100.00;154594.16;5031576;28;20080;-78
2022/05/29 00:57:50;;;;;;;27.00;6.80;;;;;;;8.19;100.00;154587.75;5000534;28;20059;-77
2022/05/29 01:00:20;;;;;;;25.08;6.50;;;;;;;8.19;100.00;154587.75;5020436;28;20048;-78
2022/05/29 01:02:46;;;;;;;36.63;7.03;;;;;;;8.20;100.00;154589.03;5007717;28;20029;-78
2022/05/29 01:05:15;;;;;;;28.00;5.95;;;;;;;8.21;100.00;154591.56;5022272;28;20037;-80
2022/05/29 01:07:48;;;;;;;22.45;5.97;;;;;;;8.18;100.00;154585.19;5007678;28;20045;-79
2022/05/29 01:10:14;;;;;;;29.80;6.22;;;;;;;8.19;100.00;154586.44;5008560;28;20111;-77
2022/05/29 01:13:11;;;;;;;32.53;6.57;;;;;;;8.17;100.00;154581.31;4992610;28;20057;-78
2022/05/29 01:16:00;;;;;;;25.90;6.03;;;;;;;8.10;100.00;154564.69;5033330;28;20068;-79
2022/05/29 01:18:35;;;;;;;32.00;6.35;;;;;;;8.12;100.00;154568.56;5003531;28;20041;-78
2022/05/29 01:21:10;;;;;;;28.85;5.72;;;;;;;8.08;100.00;154558.25;5020367;28;20637;-78
2022/05/29 01:23:58;;;;;;;27.60;6.22;;;;;;;8.02;100.00;154542.91;5014463;28;20072;-78
2022/05/29 01:26:41;;;;;;;24.45;6.15;;;;;;;8.01;100.00;154540.38;5042103;28;20613;-79
2022/05/29 01:29:23;;;;;;;23.00;6.15;;;;;;;7.98;100.00;154533.94;4999243;28;20041;-79
2022/05/29 01:31:56;;;;;;;21.60;5.90;;;;;;;7.94;100.00;154523.69;5033434;28;20032;-79
2022/05/29 01:34:31;;;;;;;23.02;5.90;;;;;;;7.94;100.00;154523.69;5026215;28;20154;-78
2022/05/29 01:37:09;;;;;;;27.77;5.85;;;;;;;7.90;100.00;154514.72;4987440;28;20040;-79
2022/05/29 01:39:43;;;;;;;26.42;6.10;;;;;;;7.88;100.00;154508.34;5025615;28;20032;-77
2022/05/29 01:42:25;;;;;;;25.88;6.07;;;;;;;7.91;100.00;154516.00;5006877;28;20064;-77
2022/05/29 01:45:13;;;;;;;29.65;6.35;;;;;;;7.89;100.00;154510.88;5008514;28;20041;-78
2022/05/29 01:47:46;;;;;;;22.75;6.40;;;;;;;7.88;100.00;154508.34;5008353;28;20116;-79
2022/05/29 01:50:19;;;;;;;22.23;6.22;;;;;;;7.89;100.00;154512.19;5026084;28;20041;-79
2022/05/29 01:52:52;;;;;;;25.48;5.80;;;;;;;7.93;100.00;154521.13;5016254;28;20029;-78
2022/05/29 01:55:25;;;;;;;21.38;6.10;;;;;;;7.90;100.00;154513.47;4994055;28;20044;-79
2022/05/29 01:57:55;;;;;;;22.65;6.15;;;;;;;7.87;100.00;154507.03;5019106;28;20037;-79
2022/05/29 02:00:22;;;;;;;32.65;6.80;;;;;;;7.90;100.00;154513.47;5001657;28;20036;-79
2022/05/29 02:03:07;;;;;;;27.10;6.60;;;;;;;7.88;100.00;154508.34;5018535;28;20052;-76
2022/05/29 02:05:42;;;;;;;27.35;6.40;;;;;;;7.90;100.00;154514.72;5000337;28;20048;-78
2022/05/29 02:08:34;;;;;;;19.13;5.55;;;;;;;7.87;100.00;154507.03;5010289;28;20045;-78
2022/05/29 02:11:07;;;;;;;20.25;5.53;;;;;;;7.93;100.00;154521.13;5032470;28;20026;-79
2022/05/29 02:13:41;;;;;;;21.35;5.63;;;;;;;7.90;100.00;154513.47;5018480;28;20044;-80
2022/05/29 02:16:15;;;;;;;22.27;6.13;;;;;;;7.89;100.00;154510.88;5010107;28;20072;-78
2022/05/29 02:19:08;;;;;;;18.85;6.28;;;;;;;7.95;100.00;154527.56;4992249;28;20048;-79
2022/05/29 02:21:49;;;;;;;25.00;6.32;;;;;;;7.94;100.00;154523.69;5018101;28;20041;-80
2022/05/29 02:24:19;;;;;;;22.73;6.35;;;;;;;7.95;100.00;154527.56;5019414;28;20025;-79
2022/05/29 02:26:53;;;;;;;24.35;6.28;;;;;;;8.01;100.00;154541.63;5028241;28;20025;-79
2022/05/29 02:29:19;;;;;;;22.02;6.78;;;;;;;8.04;100.00;154548.03;5010132;28;20033;-78
2022/05/29 02:31:51;;;;;;;19.55;5.70;;;;;;;8.00;100.00;154539.06;5022690;28;20056;-78
2022/05/29 02:34:30;;;;;;;18.38;5.55;;;;;;;7.95;100.00;154527.56;5006594;28;20033;-78
2022/05/29 02:37:11;;;;;;;25.73;6.03;;;;;;;8.00;100.00;154539.06;5010849;28;20882;-79
2022/05/29 02:40:05;;;;;;;32.83;6.83;;;;;;;8.01;100.00;154540.38;5026561;28;20032;-79
2022/05/29 02:42:54;;;;;;;26.88;5.93;;;;;;;7.97;100.00;154531.41;5008299;28;20119;-78
2022/05/29 02:45:46;;;;;;;23.60;5.75;;;;;;;7.96;100.00;154530.09;4997688;28;20043;-78
2022/05/29 02:48:30;;;;;;;26.40;6.38;;;;;;;8.10;100.00;154563.38;5011846;28;20060;-78
2022/05/29 02:51:11;;;;;;;24.00;5.50;;;;;;;7.99;100.00;154536.53;5038446;28;20039;-78
2022/05/29 02:53:42;;;;;;;23.48;5.93;;;;;;;8.00;100.00;154539.06;5024312;28;20021;-79
2022/05/29 02:56:08;;;;;;;26.00;5.90;;;;;;;8.01;100.00;154541.63;5006506;28;20044;-79
2022/05/29 02:58:35;;;;;;;17.73;5.65;;;;;;;8.02;100.00;154544.16;5001350;28;20037;-78
2022/05/29 03:01:17;;;;;;;15.80;5.53;;;;;;;7.98;100.00;154533.94;5024715;28;20044;-77
2022/05/29 03:03:56;;;;;;;20.87;6.57;;;;;;;7.99;100.00;154537.78;5017186;28;20061;-77
2022/05/29 03:06:57;;;;;;;22.98;5.95;;;;;;;7.97;100.00;154532.66;5007810;28;20059;-78
2022/05/29 03:09:49;;;;;;;22.15;5.97;;;;;;;7.97;100.00;154532.66;4934706;28;20053;-79
2022/05/29 03:12:29;;;;;;;20.70;5.85;;;;;;;7.97;100.00;154532.66;5012939;28;20037;-80
2022/05/29 03:15:08;;;;;;;32.35;6.55;;;;;;;8.06;100.00;154554.47;5008531;28;20040;-77
2022/05/29 03:17:45;;;;;;;21.25;5.80;;;;;;;8.08;100.00;154558.25;5018936;28;20029;-78
2022/05/29 03:20:42;;;;;;;20.20;5.47;;;;;;;8.10;100.00;154564.69;4992111;28;20072;-79
2022/05/29 03:23:24;;;;;;;24.17;6.03;;;;;;;8.12;100.00;154568.56;5016422;28;20037;-79
2022/05/29 03:25:55;;;;;;;25.38;6.20;;;;;;;8.10;100.00;154563.38;5020381;28;20029;-81
2022/05/29 03:28:29;;;;;;;24.10;6.00;;;;;;;8.18;100.00;154583.91;5013677;28;20044;-79
2022/05/29 03:30:59;;;;;;;22.83;5.85;;;;;;;8.16;100.00;154578.78;4988020;28;20033;-78
2022/05/29 03:33:26;;;;;;;21.58;5.38;;;;;;;8.15;100.00;154577.47;5010158;28;20131;-79
2022/05/29 03:35:52;;;;;;;26.17;5.63;;;;;;;8.15;100.00;154577.47;5008614;28;20131;-78
2022/05/29 03:38:17;;;;;;;25.48;5.97;;;;;;;8.11;100.00;154567.22;4994916;28;20483;-78
2022/05/29 03:40:43;;;;;;;29.77;5.85;;;;;;;8.10;100.00;154563.38;4994361;28;20029;-78
2022/05/29 03:43:09;;;;;;;25.60;5.70;;;;;;;8.11;100.00;154567.22;5017050;28;20865;-78
2022/05/29 03:45:34;;;;;;;23.85;5.68;;;;;;;8.06;100.00;154554.47;5008696;28;20033;-79
2022/05/29 03:48:01;;;;;;;24.05;5.25;;;;;;;8.14;100.00;154573.66;5008078;28;20021;-78
2022/05/29 03:50:27;;;;;;;28.73;5.53;;;;;;;8.16;100.00;154578.78;5024596;28;20033;-77
2022/05/29 03:52:53;;;;;;;20.63;5.10;;;;;;;8.28;100.00;154608.25;5005805;28;20095;-77
2022/05/29 03:55:22;;;;;;;25.55;6.40;;;;;;;8.24;100.00;154598.00;5014342;28;20029;-78
2022/05/29 03:57:49;;;;;;;22.70;5.28;;;;;;;8.27;100.00;154605.66;5028140;28;20025;-77
2022/05/29 04:00:15;;;;;;;23.63;5.28;;;;;;;8.24;100.00;154598.00;5010434;28;20029;-78
2022/05/29 04:02:42;;;;;;;26.95;6.00;;;;;;;8.26;100.00;154604.38;4999619;28;20091;-77
2022/05/29 04:05:13;;;;;;;19.75;5.45;;;;;;;8.25;100.00;154601.84;5008570;28;20569;-79
2022/05/29 04:13:08;;;;;;;25.33;5.55;;;;;;;8.34;100.00;154623.59;5040284;28;20360;-79
2022/05/29 04:15:35;;;;;;;25.23;5.40;;;;;;;8.31;100.00;154617.22;5026763;28;20037;-79
2022/05/29 04:18:01;;;;;;;24.52;5.40;;;;;;;8.33;100.00;154622.34;5008855;28;20045;-78
2022/05/29 04:20:26;;;;;;;29.92;6.07;;;;;;;8.38;100.00;154635.16;5014110;28;20039;-77
2022/05/29 04:22:52;;;;;;;26.75;6.38;;;;;;;8.41;100.00;154640.28;5008003;28;20037;-77
2022/05/29 04:25:17;;;;;;;23.23;5.57;;;;;;;8.42;100.00;154642.84;5006806;28;20044;-78
2022/05/29 04:27:43;;;;;;;19.30;5.00;;;;;;;8.39;100.00;154637.69;4996583;28;20044;-78
2022/05/29 04:30:09;;;;;;;29.17;5.78;;;;;;;8.45;100.00;154650.56;4994151;28;20037;-79
2022/05/29 04:35:19;;;;;;;19.92;4.95;;;;;;;8.52;100.00;154669.78;5007231;28;20045;-77
2022/05/29 04:37:45;;;;;;;23.85;5.18;;;;;;;8.65;100.00;154701.81;5028489;28;20072;-77
2022/05/29 04:40:11;;;;;;;21.40;5.22;;;;;;;8.60;100.00;154687.72;5012454;28;20052;-77
2022/05/29 04:42:36;;;;;;;21.90;5.25;;;;;;;8.57;100.00;154682.59;5007783;28;20411;-78
2022/05/29 04:45:02;;;;;;;25.30;5.75;;;;;;;8.62;100.00;154694.09;5021834;28;20056;-78
2022/05/29 04:47:28;;;;;;;24.20;5.32;;;;;;;8.63;100.00;154695.44;5006435;28;20052;-80
2022/05/29 04:49:54;;;;;;;26.63;5.50;;;;;;;8.63;100.00;154695.44;4995750;28;20041;-77
2022/05/29 04:52:20;;;;;;;25.25;5.38;;;;;;;8.65;100.00;154700.56;4989408;28;20067;-78
2022/05/29 04:54:46;;;;;;;22.63;5.05;;;;;;;8.72;100.00;154719.78;5020859;28;20037;-78
2022/05/29 04:57:12;;;;;;;29.20;5.68;;;;;;;8.77;100.00;154732.53;5002082;28;20052;-79
2022/05/29 04:59:37;;;;;;;35.55;6.07;;;;;;;8.75;100.00;154727.44;5014637;28;20041;-78
2022/05/29 05:02:04;;;;;;;22.45;5.10;;;;;;;8.79;100.00;154735.13;5011731;28;20041;-78
2022/05/29 05:04:30;;;;;;;22.95;5.13;;;;;;;8.77;100.00;154732.53;5022458;28;20033;-79
2022/05/29 05:06:58;;;;;;;24.77;5.32;;;;;;;8.80;100.00;154738.97;5039981;28;20715;-77
2022/05/29 05:09:25;;;;;;;27.90;5.75;;;;;;;8.83;100.00;154746.66;5028330;28;20044;-78
2022/05/29 05:11:52;;;;;;;23.48;4.95;;;;;;;8.89;100.00;154762.06;5027083;28;20033;-76
2022/05/29 05:14:19;;;;;;;25.77;5.45;;;;;;;8.86;100.00;154753.06;5024383;28;20678;-78
2022/05/29 05:16:46;;;;;;;29.38;5.40;;;;;;;8.78;100.00;154733.84;5025351;28;20038;-77
2022/05/29 05:19:12;;;;;;;23.63;5.32;;;;;;;8.77;100.00;154731.28;5028889;28;20119;-78
2022/05/29 05:21:37;;;;;;;18.42;5.32;;;;;;;8.81;100.00;154740.25;5006816;28;20099;-79
2022/05/29 05:24:04;;;;;;;13.85;4.82;;;;;;;8.84;100.00;154747.97;4987803;28;20041;-77
2022/05/29 05:26:30;;;;;;;24.55;4.88;;;;;;;8.90;100.00;154763.31;5024647;28;20040;-78
2022/05/29 05:28:56;;;;;;;26.08;5.18;;;;;;;8.93;100.00;154771.03;5022031;28;20025;-77
2022/05/29 05:31:22;;;;;;;21.80;5.18;;;;;;;8.94;100.00;154773.56;5021513;28;20106;-78
2022/05/29 05:33:48;;;;;;;29.65;5.65;;;;;;;9.02;100.00;154792.78;5007129;28;20029;-78
2022/05/29 05:36:15;;;;;;;21.58;4.90;;;;;;;9.02;100.00;154794.06;5012835;28;20090;-77
2022/05/29 05:38:41;;;;;;;22.42;5.20;;;;;;;8.98;100.00;154783.81;5046015;28;20037;-77
2022/05/29 05:41:11;;;;;;;28.00;5.15;;;;;;;9.08;100.00;154809.47;4996342;28;20052;-78
2022/05/29 05:43:37;;;;;;;23.10;5.03;;;;;;;9.09;100.00;154810.75;5017640;28;20038;-78
2022/05/29 05:46:11;;;;;;;23.95;5.20;;;;;;;9.18;100.00;154832.53;5001438;28;20088;-78
2022/05/29 05:48:38;;;;;;;25.23;5.57;;;;;;;9.20;100.00;154838.94;5013862;28;20087;-78
2022/05/29 05:51:04;;;;;;;22.48;4.90;;;;;;;9.23;100.00;154845.34;5015296;28;20474;-79
2022/05/29 05:53:29;;;;;;;28.73;5.97;;;;;;;9.30;100.00;154864.56;5022790;28;20037;-77
2022/05/29 05:55:55;;;;;;;25.35;5.65;;;;;;;9.34;100.00;154873.53;5013628;28;20406;-78
2022/05/29 05:58:21;;;;;;;29.77;5.18;;;;;;;9.37;100.00;154881.25;5031886;28;20036;-77
2022/05/29 06:00:49;;;;;;;24.17;5.00;;;;;;;9.41;100.00;154890.22;5012287;28;20574;-78
2022/05/29 06:03:15;;;;;;;28.63;5.43;;;;;;;9.51;100.00;154915.84;5032159;28;20025;-77
2022/05/29 06:05:41;;;;;;;21.05;5.07;;;;;;;9.57;100.00;154929.94;5012461;28;20558;-78
2022/05/29 06:08:07;;;;;;;26.90;5.35;;;;;;;9.61;100.00;154940.25;5008627;28;20044;-76
2022/05/29 06:10:33;;;;;;;22.75;5.05;;;;;;;9.70;100.00;154963.28;5026392;28;20059;-77
2022/05/29 06:13:04;;;;;;;13.65;4.10;;;;;;;9.80;100.00;154988.94;5007671;28;20408;-80
2022/05/29 06:15:29;;;;;;;27.90;5.60;;;;;;;9.83;100.00;154996.66;5012159;28;20075;-78
2022/05/29 06:17:55;;;;;;;22.08;4.88;;;;;;;9.88;100.00;155008.19;5023598;28;20570;-77
2022/05/29 06:20:20;;;;;;;22.73;4.63;;;;;;;9.90;100.00;155013.31;5038083;28;20037;-78
2022/05/29 06:22:46;;;;;;;22.60;4.90;;;;;;;9.93;100.00;155021.00;5003074;28;20934;-77
2022/05/29 06:25:11;;;;;;;19.50;4.07;;;;;;;9.90;100.00;155014.56;4989979;28;20072;-77
2022/05/29 06:27:43;;;;;;;20.50;4.07;;;;;;;9.89;100.00;155012.03;4997735;28;20439;-78
2022/05/29 06:30:12;;;;;;;24.73;5.03;;;;;;;9.83;100.00;154996.66;5010409;28;20411;-78
2022/05/29 06:32:38;;;;;;;14.18;3.90;;;;;;;9.93;100.00;155021.00;5016789;28;20522;-78
2022/05/29 06:35:05;;;;;;;20.95;4.00;;;;;;;9.92;100.00;155019.69;4991610;28;20047;-79
2022/05/29 06:37:31;;;;;;;19.63;4.38;;;;;;;10.01;100.00;155040.25;4991405;28;20445;-79
2022/05/29 06:39:58;;;;;;;18.02;4.40;;;;;;;10.09;100.00;155060.75;5013487;28;20033;-77
2022/05/29 06:42:24;;;;;;;23.23;4.65;;;;;;;10.23;100.00;155096.69;5007962;28;20127;-78
2022/05/29 06:44:50;;;;;;;19.25;4.55;;;;;;;10.35;100.00;155124.94;4998528;28;20067;-78
2022/05/29 06:47:17;;;;;;;16.38;3.78;;;;;;;10.39;100.00;155135.19;5004552;28;20060;-76
2022/05/29 06:49:47;;;;;;;15.60;3.45;;;;;;;10.32;100.00;155118.50;5039106;28;20112;-77
2022/05/29 06:52:13;;;;;;;15.30;3.55;;;;;;;10.37;100.00;155130.06;5042551;28;20111;-78
2022/05/29 06:54:39;;;;;;;18.08;3.88;;;;;;;10.56;100.00;155177.53;5008468;28;20049;-80
2022/05/29 06:57:10;;;;;;;24.08;4.20;;;;;;;10.70;100.00;155214.75;5037338;28;20045;-78
2022/05/29 07:07:59;;;;;;;19.05;3.67;;;;;;;11.12;100.00;155318.69;5035438;28;20124;-80
2022/05/29 07:10:28;;;;;;;15.98;3.50;;;;;;;11.03;100.00;155295.56;5011766;28;20033;-80
2022/05/29 07:12:56;;;;;;;17.02;3.67;;;;;;;10.99;100.00;155285.31;5012555;28;20029;-80
2022/05/29 07:15:22;;;;;;;12.70;3.03;;;;;;;10.88;100.00;155259.63;5012610;28;20040;-80
2022/05/29 07:17:48;;;;;;;17.67;3.72;;;;;;;10.73;100.00;155219.88;5001807;28;20121;-80
2022/05/29 07:20:15;;;;;;;12.85;3.13;;;;;;;10.67;100.00;155207.03;5018750;28;20174;-79
2022/05/29 07:22:43;;;;;;;17.40;3.17;;;;;;;10.63;100.00;155195.50;5029308;28;20110;-76
2022/05/29 07:25:11;;;;;;;15.23;3.63;;;;;;;10.50;100.00;155164.69;5026683;28;20060;-80
2022/05/29 07:27:38;;;;;;;13.30;3.30;;;;;;;10.48;100.00;155158.31;5027141;28;20136;-78
2022/05/29 07:30:05;;;;;;;12.40;2.80;;;;;;;10.45;100.00;155150.59;5009610;28;20044;-78
2022/05/29 07:32:31;;;;;;;17.63;3.22;;;;;;;10.41;100.00;155140.34;5004084;28;20084;-80
2022/05/29 07:34:58;;;;;;;17.33;3.15;;;;;;;10.38;100.00;155132.63;5011538;28;20033;-79
2022/05/29 07:37:24;;;;;;;14.85;3.78;;;;;;;10.28;100.00;155109.53;5009229;28;20080;-79
2022/05/29 07:39:52;;;;;;;13.63;2.95;;;;;;;10.33;100.00;155121.09;5044043;28;20037;-78
2022/05/29 07:45:05;;;;;;;15.70;3.55;;;;;;;10.37;100.00;155130.06;5026460;28;20346;-77
2022/05/29 07:47:45;;;;;;;18.48;3.22;;;;;;;10.26;100.00;155104.34;5018192;28;20041;-77
2022/05/29 07:50:15;;;;;;;11.60;2.92;;;;;;;10.23;100.00;155095.41;4992826;28;20515;-78
2022/05/29 07:52:40;;;;;;;10.15;2.85;;;;;;;10.06;100.00;155054.34;5020108;28;20033;-77
2022/05/29 07:55:06;;;;;;;15.45;3.00;;;;;;;10.09;100.00;155062.03;5016221;28;20055;-76
2022/05/29 07:57:32;;;;;;;13.52;3.50;;;;;;;10.14;100.00;155074.84;5018394;28;20102;-77
2022/05/29 07:59:57;;;;;;;18.05;3.60;;;;;;;10.12;100.00;155068.47;5016208;28;20034;-80
2022/05/29 08:02:23;;;;;;;14.88;2.95;;;;;;;10.17;100.00;155081.31;4993172;28;20124;-76
2022/05/29 08:04:49;;;;;;;13.75;3.58;;;;;;;10.15;100.00;155076.13;5038547;28;20034;-77
2022/05/29 08:07:17;;;;;;;11.45;3.22;;;;;;;10.16;100.00;155077.44;5016548;28;20045;-78
2022/05/29 08:09:42;;;;;;;11.38;2.88;;;;;;;10.19;100.00;155086.44;5013653;28;20028;-79
2022/05/29 08:12:08;;;;;;;12.38;3.20;;;;;;;10.25;100.00;155101.81;5008104;28;20037;-79
2022/05/29 08:14:34;;;;;;;11.27;2.80;;;;;;;10.21;100.00;155091.56;5012348;28;20454;-77
2022/05/29 08:17:00;;;;;;;12.57;3.35;;;;;;;10.30;100.00;155114.69;5020484;28;20123;-78
2022/05/29 08:19:26;;;;;;;12.02;3.38;;;;;;;10.52;100.00;155168.56;5012080;28;20061;-78
2022/05/29 08:21:52;;;;;;;12.15;3.35;;;;;;;10.74;100.00;155223.72;5023080;28;20044;-78
2022/05/29 08:32:30;;;;;;;12.77;3.40;;;;;;;11.29;100.00;155362.31;5021068;28;20072;-79
2022/05/29 08:34:56;;;;;;;14.32;3.40;;;;;;;11.22;100.00;155343.06;5012796;28;20115;-79
2022/05/29 08:37:21;;;;;;;11.00;2.95;;;;;;;11.14;100.00;155323.81;4995103;28;20083;-79
2022/05/29 08:39:47;;;;;;;15.18;3.28;;;;;;;11.19;100.00;155336.66;4994179;28;20048;-78
2022/05/29 08:42:18;;;;;;;11.85;3.25;;;;;;;11.18;100.00;155334.06;5001316;28;20388;-77
2022/05/29 08:44:50;;;;;;;12.80;3.47;;;;;;;11.16;100.00;155327.66;5005487;28;20787;-79
2022/05/29 08:47:22;;;;;;;15.05;3.95;;;;;;;11.06;100.00;155303.28;5027783;28;20040;-79
2022/05/29 08:49:48;;;;;;;17.98;3.88;;;;;;;10.85;100.00;155250.66;5020249;28;20029;-77
2022/05/29 08:52:47;;;;;;;11.43;3.10;;;;;;;10.70;100.00;155213.47;5010790;28;20089;-78
2022/05/29 08:55:19;;;;;;;12.88;3.28;;;;;;;10.63;100.00;155196.78;5026357;28;20029;-78
2022/05/29 08:58:14;;;;;;;17.00;3.90;;;;;;;10.53;100.00;155171.13;5013000;28;20406;-79
2022/05/29 09:01:12;;;;;;;13.35;3.53;;;;;;;10.51;100.00;155166.00;5027472;28;20558;-78
2022/05/29 09:03:56;;;;;;;16.90;4.10;;;;;;;10.52;100.00;155169.81;4994810;28;20116;-77
2022/05/29 09:06:43;;;;;;;16.92;3.40;;;;;;;10.51;100.00;155166.00;5042964;28;20033;-76
2022/05/29 09:09:28;;;;;;;14.95;3.65;;;;;;;10.55;100.00;155176.28;5026405;28;20053;-78
2022/05/29 09:11:57;;;;;;;12.23;3.67;;;;;;;10.48;100.00;155159.56;5009798;28;20699;-79
2022/05/29 09:14:30;;;;;;;16.83;3.88;;;;;;;10.53;100.00;155171.13;5025635;28;20037;-76
2022/05/29 09:17:08;;;;;;;14.40;3.85;;;;;;;10.68;100.00;155208.31;5030511;28;20041;-76
2022/05/29 09:19:45;;;;;;;16.05;3.90;;;;;;;10.70;100.00;155214.75;5008123;28;20041;-78
2022/05/29 09:22:20;;;;;;;10.88;3.45;;;;;;;10.73;100.00;155219.88;5002613;28;20053;-79
2022/05/29 09:24:55;;;;;;;17.25;3.38;;;;;;;10.85;100.00;155250.66;5005765;28;20041;-78
2022/05/29 09:27:22;;;;;;;15.20;3.92;;;;;;;10.80;100.00;155239.13;5009843;28;20380;-76
2022/05/29 09:29:50;;;;;;;13.65;3.65;;;;;;;10.64;100.00;155198.03;5027298;28;20032;-78
2022/05/29 09:32:21;;;;;;;8.05;3.08;;;;;;;10.59;100.00;155185.25;5027998;28;20037;-78
2022/05/29 09:34:57;;;;;;;21.88;4.28;;;;;;;10.52;100.00;155168.56;4993649;28;20032;-77
2022/05/29 09:37:36;;;;;;;14.05;4.00;;;;;;;10.43;100.00;155146.72;5019992;28;20132;-80
2022/05/29 09:40:03;;;;;;;10.43;3.97;;;;;;;10.44;100.00;155148.03;5010049;28;20037;-77
2022/05/29 09:42:39;;;;;;;12.02;4.13;;;;;;;10.56;100.00;155177.53;5026797;28;20037;-78
2022/05/29 09:45:19;;;;;;;13.43;3.88;;;;;;;10.63;100.00;155196.78;5026247;28;20030;-77
2022/05/29 09:50:59;;;;;;;12.32;3.58;;;;;;;10.56;100.00;155178.81;5041578;28;20083;-79
2022/05/29 09:53:34;;;;;;;10.70;3.55;;;;;;;10.59;100.00;155186.53;4998076;28;20034;-77
2022/05/29 09:56:02;;;;;;;13.45;3.63;;;;;;;10.55;100.00;155174.94;5041735;28;20108;-78
2022/05/29 09:58:34;;;;;;;11.52;3.17;;;;;;;10.46;100.00;155153.16;5035984;28;20057;-76
2022/05/29 10:01:03;;;;;;;16.25;4.18;;;;;;;10.26;100.00;155104.34;5008294;28;20582;-77
2022/05/29 10:03:43;;;;;;;12.27;3.83;;;;;;;10.26;100.00;155103.06;5018171;28;20893;-78
2022/05/29 10:06:14;;;;;;;11.88;4.15;;;;;;;10.31;100.00;155117.22;5007386;28;20612;-76
2022/05/29 10:08:40;;;;;;;14.65;3.67;;;;;;;10.35;100.00;155124.94;5026380;28;20245;-76
2022/05/29 10:11:20;;;;;;;8.77;3.47;;;;;;;10.48;100.00;155158.31;5019979;28;20047;-76
2022/05/29 10:13:46;;;;;;;14.70;4.45;;;;;;;10.55;100.00;155176.28;5019376;28;20063;-76
2022/05/29 10:16:28;;;;;;;14.88;4.22;;;;;;;10.57;100.00;155180.06;5037338;28;20384;-78
2022/05/29 10:18:53;;;;;;;10.50;4.32;;;;;;;10.48;100.00;155159.56;5018581;28;20029;-78
2022/05/29 10:21:27;;;;;;;13.77;4.40;;;;;;;10.49;100.00;155162.16;5033099;28;20036;-77
2022/05/29 10:24:12;;;;;;;11.90;4.47;;;;;;;10.49;100.00;155162.16;5024378;28;20043;-77
2022/05/29 10:26:38;;;;;;;19.33;5.38;;;;;;;10.48;100.00;155159.56;5028416;28;20052;-78
2022/05/29 10:29:33;;;;;;;13.88;4.20;;;;;;;10.52;100.00;155168.56;5012691;28;20033;-77
2022/05/29 10:32:03;;;;;;;12.82;5.25;;;;;;;10.47;100.00;155157.03;5039912;28;20069;-79
2022/05/29 10:34:36;;;;;;;16.92;5.60;;;;;;;10.51;100.00;155167.28;5031087;28;20033;-79
2022/05/29 10:37:36;;;;;;;13.00;4.35;;;;;;;10.55;100.00;155174.94;5007992;28;20166;-81
2022/05/29 10:40:31;;;;;;;16.25;4.10;;;;;;;10.58;100.00;155183.94;5011506;28;20041;-77
2022/05/29 10:43:00;;;;;;;14.77;3.80;;;;;;;10.51;100.00;155166.00;5013700;28;20115;-79
2022/05/29 10:45:41;;;;;;;10.50;3.20;;;;;;;10.57;100.00;155180.06;5039864;28;20083;-77
2022/05/29 10:48:11;;;;;;;13.02;2.90;;;;;;;10.79;100.00;155235.25;5024852;28;20056;-76
2022/05/29 10:51:08;;;;;;;12.35;3.10;;;;;;;10.87;100.00;155255.81;5003607;28;20045;-78
2022/05/29 10:53:49;;;;;;;8.32;2.40;;;;;;;11.11;100.00;155316.09;5036417;28;20029;-78
2022/05/29 10:56:33;;;;;;;10.85;2.00;;;;;;;11.22;100.00;155344.34;5021981;28;20024;-78
2022/05/29 10:59:26;;;;;;;14.15;2.70;;;;;;;11.43;100.00;155395.69;5006865;28;20098;-78
2022/05/29 11:05:11;;;;;;;8.60;2.40;;;;;;;11.29;100.00;155361.03;5023400;28;20053;-78
2022/05/29 11:08:01;;;;;;;10.00;2.88;;;;;;;11.27;100.00;155357.19;5006002;28;20151;-77
2022/05/29 11:10:46;;;;;;;13.48;3.08;;;;;;;11.10;100.00;155314.81;5030056;28;20048;-78
2022/05/29 11:13:32;;;;;;;9.25;2.78;;;;;;;11.20;100.00;155337.94;5034737;28;20031;-78
2022/05/29 11:16:19;;;;;;;5.63;2.63;;;;;;;11.11;100.00;155316.09;5020642;28;20086;-78
2022/05/29 11:19:18;;;;;;;14.48;3.05;;;;;;;11.17;100.00;155330.22;5017180;28;20058;-79
2022/05/29 11:21:59;;;;;;;11.00;2.72;;;;;;;11.18;100.00;155332.81;5022827;28;20115;-80
2022/05/29 11:24:28;;;;;;;8.60;2.72;;;;;;;11.31;100.00;155366.16;5009998;28;20041;-79
2022/05/29 11:27:18;;;;;;;13.23;3.33;;;;;;;11.29;100.00;155362.31;5020650;28;20095;-78
2022/05/29 11:30:04;;;;;;;15.50;3.13;;;;;;;11.35;100.00;155375.16;4991005;28;20044;-78
2022/05/29 11:33:15;;;;;;;10.05;2.65;;;;;;;11.27;100.00;155355.91;5002675;28;20029;-79
2022/05/29 11:36:17;;;;;;;13.00;2.50;;;;;;;11.40;100.00;155389.28;5011574;28;20047;-78
2022/05/29 11:38:58;;;;;;;10.80;2.78;;;;;;;11.47;100.00;155407.25;5037081;28;20037;-77
2022/05/29 11:41:49;;;;;;;10.20;2.65;;;;;;;11.75;100.00;155475.28;5040039;28;20030;-75
2022/05/29 11:44:40;;;;;;;11.65;2.95;;;;;;;11.87;100.00;155507.38;5011901;28;20322;-78
2022/05/29 11:53:24;;;;;;;13.98;2.83;;;;;;;12.20;100.00;155589.59;5020580;28;20456;-77
2022/05/29 11:55:54;;;;;;;10.10;2.78;;;;;;;12.21;100.00;155592.19;5009897;28;20060;-77
2022/05/29 11:58:27;;;;;;;9.65;2.40;;;;;;;12.39;100.00;155635.84;5039249;28;20038;-78
2022/05/29 12:00:58;;;;;;;10.65;2.53;;;;;;;12.44;100.00;155649.97;5018014;28;20029;-77
2022/05/29 12:03:54;;;;;;;12.25;2.60;;;;;;;12.38;100.00;155634.56;5017466;28;20039;-79
2022/05/29 12:06:39;;;;;;;16.50;2.58;;;;;;;12.26;100.00;155605.03;5011300;28;20045;-79
2022/05/29 12:09:26;;;;;;;7.85;2.17;;;;;;;12.33;100.00;155620.44;5025380;28;20104;-80
2022/05/29 12:12:10;;;;;;;9.43;2.10;;;;;;;12.34;100.00;155624.31;4998992;28;20060;-79
2022/05/29 12:14:44;;;;;;;7.28;2.30;;;;;;;12.03;100.00;155545.94;5021977;28;20465;-79
2022/05/29 12:17:19;;;;;;;14.88;2.60;;;;;;;12.06;100.00;155553.66;5017425;28;20048;-78
2022/05/29 12:19:50;;;;;;;8.63;2.55;;;;;;;12.20;100.00;155589.59;4996934;28;20039;-78
2022/05/29 12:22:21;;;;;;;11.13;2.50;;;;;;;12.14;100.00;155572.94;4996895;28;20041;-78